sensor_id;sensor_type;location;lat;lon;timestamp;P1;durP1;ratioP1;P2;durP2;ratioP2
41115;SDS011;26861;51.824;4.682;2023-07-16T00:02:14;3.08;;;1.23;;
41115;SDS011;26861;51.824;4.682;2023-07-16T00:04:39;2.92;;;1.05;;
41115;SDS011;26861;51.824;4.682;2023-07-16T00:07:05;3.03;;;1.38;;
41115;SDS011;26861;51.824;4.682;2023-07-16T00:09:31;3.05;;;1.17;;
41115;SDS011;26861;51.824;4.682;2023-07-16T00:11:57;3.13;;;1.23;;
41115;SDS011;26861;51.824;4.682;2023-07-16T00:14:22;3.47;;;1.20;;
41115;SDS011;26861;51.824;4.682;2023-07-16T00:16:48;2.13;;;1.20;;
41115;SDS011;26861;51.824;4.682;2023-07-16T00:19:14;2.78;;;1.38;;
41115;SDS011;26861;51.824;4.682;2023-07-16T00:21:40;1.65;;;1.10;;
41115;SDS011;26861;51.824;4.682;2023-07-16T00:24:07;4.25;;;1.38;;
41115;SDS011;26861;51.824;4.682;2023-07-16T00:26:32;3.03;;;1.50;;
41115;SDS011;26861;51.824;4.682;2023-07-16T00:28:58;4.00;;;1.10;;
41115;SDS011;26861;51.824;4.682;2023-07-16T00:31:23;2.28;;;1.30;;
41115;SDS011;26861;51.824;4.682;2023-07-16T00:33:49;3.85;;;1.50;;
41115;SDS011;26861;51.824;4.682;2023-07-16T00:36:15;2.85;;;0.98;;
41115;SDS011;26861;51.824;4.682;2023-07-16T00:38:40;3.90;;;1.50;;
41115;SDS011;26861;51.824;4.682;2023-07-16T00:41:07;2.67;;;1.10;;
41115;SDS011;26861;51.824;4.682;2023-07-16T00:43:33;4.32;;;1.27;;
41115;SDS011;26861;51.824;4.682;2023-07-16T00:45:59;3.88;;;1.48;;
41115;SDS011;26861;51.824;4.682;2023-07-16T00:48:25;2.78;;;1.10;;
41115;SDS011;26861;51.824;4.682;2023-07-16T00:50:52;3.08;;;1.52;;
41115;SDS011;26861;51.824;4.682;2023-07-16T00:53:19;4.65;;;1.25;;
41115;SDS011;26861;51.824;4.682;2023-07-16T00:55:45;3.50;;;1.30;;
41115;SDS011;26861;51.824;4.682;2023-07-16T00:58:11;3.90;;;1.50;;
41115;SDS011;26861;51.824;4.682;2023-07-16T01:00:39;3.45;;;1.58;;
41115;SDS011;26861;51.824;4.682;2023-07-16T01:03:06;3.47;;;1.40;;
41115;SDS011;26861;51.824;4.682;2023-07-16T01:05:57;3.15;;;1.30;;
41115;SDS011;26861;51.824;4.682;2023-07-16T01:08:38;3.50;;;1.63;;
41115;SDS011;26861;51.824;4.682;2023-07-16T01:11:08;4.70;;;1.88;;
41115;SDS011;26861;51.824;4.682;2023-07-16T01:13:35;2.75;;;1.40;;
41115;SDS011;26861;51.824;4.682;2023-07-16T01:16:02;1.80;;;1.25;;
41115;SDS011;26861;51.824;4.682;2023-07-16T01:18:28;3.38;;;1.25;;
41115;SDS011;26861;51.824;4.682;2023-07-16T01:20:54;3.15;;;1.20;;
41115;SDS011;26861;51.824;4.682;2023-07-16T01:31:02;4.93;;;1.42;;
41115;SDS011;26861;51.824;4.682;2023-07-16T01:33:29;6.85;;;1.63;;
41115;SDS011;26861;51.824;4.682;2023-07-16T01:35:56;5.05;;;1.88;;
41115;SDS011;26861;51.824;4.682;2023-07-16T01:38:24;4.10;;;1.45;;
41115;SDS011;26861;51.824;4.682;2023-07-16T01:40:50;5.18;;;2.05;;
41115;SDS011;26861;51.824;4.682;2023-07-16T01:43:16;4.63;;;1.52;;
41115;SDS011;26861;51.824;4.682;2023-07-16T01:45:42;3.25;;;1.52;;
41115;SDS011;26861;51.824;4.682;2023-07-16T01:50:58;4.22;;;1.77;;
41115;SDS011;26861;51.824;4.682;2023-07-16T01:53:25;3.50;;;1.73;;
41115;SDS011;26861;51.824;4.682;2023-07-16T01:55:51;4.10;;;1.95;;
41115;SDS011;26861;51.824;4.682;2023-07-16T01:58:17;7.03;;;2.17;;
41115;SDS011;26861;51.824;4.682;2023-07-16T02:00:44;4.32;;;1.92;;
41115;SDS011;26861;51.824;4.682;2023-07-16T02:03:10;4.45;;;1.73;;
41115;SDS011;26861;51.824;4.682;2023-07-16T02:05:36;3.10;;;1.67;;
41115;SDS011;26861;51.824;4.682;2023-07-16T02:08:02;3.38;;;1.50;;
41115;SDS011;26861;51.824;4.682;2023-07-16T02:10:28;3.75;;;1.42;;
41115;SDS011;26861;51.824;4.682;2023-07-16T02:12:53;6.22;;;1.90;;
41115;SDS011;26861;51.824;4.682;2023-07-16T02:15:19;3.67;;;1.65;;
41115;SDS011;26861;51.824;4.682;2023-07-16T02:17:45;3.63;;;1.80;;
41115;SDS011;26861;51.824;4.682;2023-07-16T02:20:10;2.67;;;1.70;;
41115;SDS011;26861;51.824;4.682;2023-07-16T02:22:37;4.40;;;2.15;;
41115;SDS011;26861;51.824;4.682;2023-07-16T02:25:03;3.25;;;1.67;;
41115;SDS011;26861;51.824;4.682;2023-07-16T02:27:29;4.05;;;2.03;;
41115;SDS011;26861;51.824;4.682;2023-07-16T02:29:54;6.70;;;1.70;;
41115;SDS011;26861;51.824;4.682;2023-07-16T02:32:20;3.28;;;1.50;;
41115;SDS011;26861;51.824;4.682;2023-07-16T02:34:46;5.63;;;1.70;;
41115;SDS011;26861;51.824;4.682;2023-07-16T02:37:12;4.05;;;1.80;;
41115;SDS011;26861;51.824;4.682;2023-07-16T02:39:38;4.43;;;1.70;;
41115;SDS011;26861;51.824;4.682;2023-07-16T02:42:04;4.03;;;1.95;;
41115;SDS011;26861;51.824;4.682;2023-07-16T02:44:30;4.30;;;1.48;;
41115;SDS011;26861;51.824;4.682;2023-07-16T02:46:56;3.08;;;1.60;;
41115;SDS011;26861;51.824;4.682;2023-07-16T02:49:22;4.70;;;1.90;;
41115;SDS011;26861;51.824;4.682;2023-07-16T02:51:48;5.20;;;1.60;;
41115;SDS011;26861;51.824;4.682;2023-07-16T02:54:14;3.70;;;1.70;;
41115;SDS011;26861;51.824;4.682;2023-07-16T02:56:40;3.97;;;1.80;;
41115;SDS011;26861;51.824;4.682;2023-07-16T02:59:07;5.70;;;2.10;;
41115;SDS011;26861;51.824;4.682;2023-07-16T03:01:33;5.38;;;1.70;;
41115;SDS011;26861;51.824;4.682;2023-07-16T03:03:58;5.95;;;2.00;;
41115;SDS011;26861;51.824;4.682;2023-07-16T03:06:24;4.05;;;1.77;;
41115;SDS011;26861;51.824;4.682;2023-07-16T03:08:50;2.70;;;2.05;;
41115;SDS011;26861;51.824;4.682;2023-07-16T03:11:15;3.70;;;1.55;;
41115;SDS011;26861;51.824;4.682;2023-07-16T03:13:41;3.00;;;1.50;;
41115;SDS011;26861;51.824;4.682;2023-07-16T03:16:06;4.03;;;1.80;;
41115;SDS011;26861;51.824;4.682;2023-07-16T03:18:32;6.20;;;1.83;;
41115;SDS011;26861;51.824;4.682;2023-07-16T03:20:58;3.88;;;2.05;;
41115;SDS011;26861;51.824;4.682;2023-07-16T03:23:24;3.33;;;1.92;;
41115;SDS011;26861;51.824;4.682;2023-07-16T03:25:50;4.05;;;2.15;;
41115;SDS011;26861;51.824;4.682;2023-07-16T03:28:16;4.68;;;2.33;;
41115;SDS011;26861;51.824;4.682;2023-07-16T03:30:46;5.15;;;1.95;;
41115;SDS011;26861;51.824;4.682;2023-07-16T03:33:15;3.35;;;1.77;;
41115;SDS011;26861;51.824;4.682;2023-07-16T03:35:42;3.30;;;2.00;;
41115;SDS011;26861;51.824;4.682;2023-07-16T03:38:09;4.30;;;2.17;;
41115;SDS011;26861;51.824;4.682;2023-07-16T03:40:38;4.75;;;2.15;;
41115;SDS011;26861;51.824;4.682;2023-07-16T03:43:05;5.53;;;2.25;;
41115;SDS011;26861;51.824;4.682;2023-07-16T03:45:31;4.35;;;2.00;;
41115;SDS011;26861;51.824;4.682;2023-07-16T03:47:57;6.13;;;2.42;;
41115;SDS011;26861;51.824;4.682;2023-07-16T03:50:23;4.82;;;2.15;;
41115;SDS011;26861;51.824;4.682;2023-07-16T03:52:49;4.85;;;2.30;;
41115;SDS011;26861;51.824;4.682;2023-07-16T03:55:15;5.93;;;2.40;;
41115;SDS011;26861;51.824;4.682;2023-07-16T03:57:42;3.47;;;1.98;;
41115;SDS011;26861;51.824;4.682;2023-07-16T04:00:08;3.50;;;2.20;;
41115;SDS011;26861;51.824;4.682;2023-07-16T04:02:35;3.95;;;1.77;;
41115;SDS011;26861;51.824;4.682;2023-07-16T04:05:01;3.60;;;2.08;;
41115;SDS011;26861;51.824;4.682;2023-07-16T04:07:28;3.38;;;2.17;;
41115;SDS011;26861;51.824;4.682;2023-07-16T04:09:54;5.43;;;2.47;;
41115;SDS011;26861;51.824;4.682;2023-07-16T04:12:21;3.70;;;2.50;;
41115;SDS011;26861;51.824;4.682;2023-07-16T04:14:47;3.25;;;2.08;;
41115;SDS011;26861;51.824;4.682;2023-07-16T04:17:14;4.70;;;2.83;;
41115;SDS011;26861;51.824;4.682;2023-07-16T04:19:40;8.63;;;2.60;;
41115;SDS011;26861;51.824;4.682;2023-07-16T04:22:06;5.38;;;1.95;;
41115;SDS011;26861;51.824;4.682;2023-07-16T04:24:32;4.57;;;2.20;;
41115;SDS011;26861;51.824;4.682;2023-07-16T04:26:58;4.35;;;2.03;;
41115;SDS011;26861;51.824;4.682;2023-07-16T04:29:24;4.20;;;2.42;;
41115;SDS011;26861;51.824;4.682;2023-07-16T04:31:50;5.38;;;2.33;;
41115;SDS011;26861;51.824;4.682;2023-07-16T04:34:16;4.88;;;2.55;;
41115;SDS011;26861;51.824;4.682;2023-07-16T04:36:42;4.97;;;2.45;;
41115;SDS011;26861;51.824;4.682;2023-07-16T04:39:09;2.65;;;2.03;;
41115;SDS011;26861;51.824;4.682;2023-07-16T04:41:34;6.25;;;2.38;;
41115;SDS011;26861;51.824;4.682;2023-07-16T04:44:00;3.55;;;2.20;;
41115;SDS011;26861;51.824;4.682;2023-07-16T04:46:26;7.13;;;2.50;;
41115;SDS011;26861;51.824;4.682;2023-07-16T04:48:52;3.70;;;2.65;;
41115;SDS011;26861;51.824;4.682;2023-07-16T04:51:18;4.53;;;2.60;;
41115;SDS011;26861;51.824;4.682;2023-07-16T04:53:44;4.72;;;2.30;;
41115;SDS011;26861;51.824;4.682;2023-07-16T04:56:13;5.15;;;2.45;;
41115;SDS011;26861;51.824;4.682;2023-07-16T04:58:39;4.73;;;2.50;;
41115;SDS011;26861;51.824;4.682;2023-07-16T05:01:04;4.47;;;2.47;;
41115;SDS011;26861;51.824;4.682;2023-07-16T05:03:30;4.50;;;2.47;;
41115;SDS011;26861;51.824;4.682;2023-07-16T05:05:56;4.85;;;2.72;;
41115;SDS011;26861;51.824;4.682;2023-07-16T05:08:21;3.80;;;2.58;;
41115;SDS011;26861;51.824;4.682;2023-07-16T05:10:47;5.32;;;2.72;;
41115;SDS011;26861;51.824;4.682;2023-07-16T05:13:13;6.40;;;3.00;;
41115;SDS011;26861;51.824;4.682;2023-07-16T05:15:40;5.82;;;3.03;;
41115;SDS011;26861;51.824;4.682;2023-07-16T05:18:05;7.03;;;2.75;;
41115;SDS011;26861;51.824;4.682;2023-07-16T05:20:31;3.30;;;2.40;;
41115;SDS011;26861;51.824;4.682;2023-07-16T05:22:57;3.65;;;2.47;;
41115;SDS011;26861;51.824;4.682;2023-07-16T05:25:22;5.43;;;2.85;;
41115;SDS011;26861;51.824;4.682;2023-07-16T05:27:48;4.45;;;2.25;;
41115;SDS011;26861;51.824;4.682;2023-07-16T05:30:13;5.05;;;2.67;;
41115;SDS011;26861;51.824;4.682;2023-07-16T05:32:40;4.43;;;2.67;;
41115;SDS011;26861;51.824;4.682;2023-07-16T05:35:05;5.05;;;2.80;;
41115;SDS011;26861;51.824;4.682;2023-07-16T05:37:31;4.55;;;2.72;;
41115;SDS011;26861;51.824;4.682;2023-07-16T05:39:57;4.57;;;2.97;;
41115;SDS011;26861;51.824;4.682;2023-07-16T05:42:22;4.28;;;2.97;;
41115;SDS011;26861;51.824;4.682;2023-07-16T05:44:48;6.15;;;2.80;;
41115;SDS011;26861;51.824;4.682;2023-07-16T05:47:14;3.22;;;2.42;;
41115;SDS011;26861;51.824;4.682;2023-07-16T05:49:39;3.17;;;2.40;;
41115;SDS011;26861;51.824;4.682;2023-07-16T05:52:05;5.90;;;2.92;;
41115;SDS011;26861;51.824;4.682;2023-07-16T05:54:31;8.50;;;3.05;;
41115;SDS011;26861;51.824;4.682;2023-07-16T05:56:56;4.55;;;2.90;;
41115;SDS011;26861;51.824;4.682;2023-07-16T05:59:22;7.45;;;2.83;;
41115;SDS011;26861;51.824;4.682;2023-07-16T06:01:48;3.00;;;2.70;;
41115;SDS011;26861;51.824;4.682;2023-07-16T06:04:14;3.88;;;2.67;;
41115;SDS011;26861;51.824;4.682;2023-07-16T06:06:39;5.30;;;2.70;;
41115;SDS011;26861;51.824;4.682;2023-07-16T06:09:05;5.75;;;3.15;;
41115;SDS011;26861;51.824;4.682;2023-07-16T06:11:30;5.60;;;3.13;;
41115;SDS011;26861;51.824;4.682;2023-07-16T06:13:56;3.22;;;2.60;;
41115;SDS011;26861;51.824;4.682;2023-07-16T06:16:22;4.30;;;2.90;;
41115;SDS011;26861;51.824;4.682;2023-07-16T06:18:47;4.95;;;2.47;;
41115;SDS011;26861;51.824;4.682;2023-07-16T06:21:14;5.35;;;3.00;;
41115;SDS011;26861;51.824;4.682;2023-07-16T06:23:40;7.00;;;2.78;;
41115;SDS011;26861;51.824;4.682;2023-07-16T06:26:06;6.78;;;2.97;;
41115;SDS011;26861;51.824;4.682;2023-07-16T06:28:32;4.57;;;3.03;;
41115;SDS011;26861;51.824;4.682;2023-07-16T06:30:58;5.68;;;2.85;;
41115;SDS011;26861;51.824;4.682;2023-07-16T06:33:24;5.93;;;3.47;;
41115;SDS011;26861;51.824;4.682;2023-07-16T06:35:52;4.43;;;2.92;;
41115;SDS011;26861;51.824;4.682;2023-07-16T06:38:17;6.40;;;3.30;;
41115;SDS011;26861;51.824;4.682;2023-07-16T06:40:47;4.57;;;3.05;;
41115;SDS011;26861;51.824;4.682;2023-07-16T06:43:13;6.18;;;3.33;;
41115;SDS011;26861;51.824;4.682;2023-07-16T06:45:39;3.70;;;2.70;;
41115;SDS011;26861;51.824;4.682;2023-07-16T06:48:05;6.95;;;3.08;;
41115;SDS011;26861;51.824;4.682;2023-07-16T06:50:31;5.82;;;3.10;;
41115;SDS011;26861;51.824;4.682;2023-07-16T06:52:56;4.43;;;3.00;;
41115;SDS011;26861;51.824;4.682;2023-07-16T06:55:22;4.00;;;3.00;;
41115;SDS011;26861;51.824;4.682;2023-07-16T06:57:48;8.32;;;3.45;;
41115;SDS011;26861;51.824;4.682;2023-07-16T07:00:14;4.95;;;2.95;;
41115;SDS011;26861;51.824;4.682;2023-07-16T07:02:40;6.13;;;3.30;;
41115;SDS011;26861;51.824;4.682;2023-07-16T07:05:06;4.80;;;3.40;;
41115;SDS011;26861;51.824;4.682;2023-07-16T07:07:32;7.15;;;3.72;;
41115;SDS011;26861;51.824;4.682;2023-07-16T07:09:58;5.40;;;3.60;;
41115;SDS011;26861;51.824;4.682;2023-07-16T07:12:24;5.55;;;3.40;;
41115;SDS011;26861;51.824;4.682;2023-07-16T07:14:50;7.13;;;3.33;;
41115;SDS011;26861;51.824;4.682;2023-07-16T07:17:17;4.50;;;3.30;;
41115;SDS011;26861;51.824;4.682;2023-07-16T07:19:42;5.97;;;3.53;;
41115;SDS011;26861;51.824;4.682;2023-07-16T07:22:09;5.32;;;3.75;;
41115;SDS011;26861;51.824;4.682;2023-07-16T07:24:35;9.10;;;3.90;;
41115;SDS011;26861;51.824;4.682;2023-07-16T07:27:00;6.85;;;4.15;;
41115;SDS011;26861;51.824;4.682;2023-07-16T07:29:26;8.68;;;4.22;;
41115;SDS011;26861;51.824;4.682;2023-07-16T07:31:52;8.32;;;3.80;;
41115;SDS011;26861;51.824;4.682;2023-07-16T07:34:18;8.40;;;4.03;;
41115;SDS011;26861;51.824;4.682;2023-07-16T07:36:43;6.97;;;4.20;;
41115;SDS011;26861;51.824;4.682;2023-07-16T07:39:09;6.30;;;3.75;;
41115;SDS011;26861;51.824;4.682;2023-07-16T07:41:35;7.75;;;3.80;;
41115;SDS011;26861;51.824;4.682;2023-07-16T07:44:01;6.78;;;4.25;;
41115;SDS011;26861;51.824;4.682;2023-07-16T07:46:26;6.78;;;3.78;;
41115;SDS011;26861;51.824;4.682;2023-07-16T07:48:52;7.10;;;4.15;;
41115;SDS011;26861;51.824;4.682;2023-07-16T07:51:19;7.00;;;4.20;;
41115;SDS011;26861;51.824;4.682;2023-07-16T07:53:46;5.75;;;3.78;;
41115;SDS011;26861;51.824;4.682;2023-07-16T07:56:12;7.28;;;4.25;;
41115;SDS011;26861;51.824;4.682;2023-07-16T07:58:38;6.85;;;3.75;;
41115;SDS011;26861;51.824;4.682;2023-07-16T08:01:05;7.25;;;4.20;;
41115;SDS011;26861;51.824;4.682;2023-07-16T08:03:33;7.72;;;4.00;;
41115;SDS011;26861;51.824;4.682;2023-07-16T08:06:00;6.05;;;3.75;;
41115;SDS011;26861;51.824;4.682;2023-07-16T08:08:27;7.82;;;4.05;;
41115;SDS011;26861;51.824;4.682;2023-07-16T08:10:53;6.65;;;3.97;;
41115;SDS011;26861;51.824;4.682;2023-07-16T08:13:19;7.65;;;4.18;;
41115;SDS011;26861;51.824;4.682;2023-07-16T08:15:45;7.30;;;4.13;;
41115;SDS011;26861;51.824;4.682;2023-07-16T08:18:12;6.43;;;4.53;;
41115;SDS011;26861;51.824;4.682;2023-07-16T08:20:38;7.53;;;4.25;;
41115;SDS011;26861;51.824;4.682;2023-07-16T08:23:05;7.15;;;3.92;;
41115;SDS011;26861;51.824;4.682;2023-07-16T08:25:31;5.47;;;3.80;;
41115;SDS011;26861;51.824;4.682;2023-07-16T08:27:57;7.10;;;4.20;;
41115;SDS011;26861;51.824;4.682;2023-07-16T08:30:22;6.57;;;4.00;;
41115;SDS011;26861;51.824;4.682;2023-07-16T08:32:48;5.70;;;3.78;;
41115;SDS011;26861;51.824;4.682;2023-07-16T08:35:15;8.63;;;4.30;;
41115;SDS011;26861;51.824;4.682;2023-07-16T08:37:42;9.55;;;4.60;;
41115;SDS011;26861;51.824;4.682;2023-07-16T08:40:09;6.38;;;4.45;;
41115;SDS011;26861;51.824;4.682;2023-07-16T08:42:39;5.57;;;3.83;;
41115;SDS011;26861;51.824;4.682;2023-07-16T08:45:11;6.03;;;4.43;;
41115;SDS011;26861;51.824;4.682;2023-07-16T08:47:37;8.68;;;4.63;;
41115;SDS011;26861;51.824;4.682;2023-07-16T08:50:03;6.35;;;4.22;;
41115;SDS011;26861;51.824;4.682;2023-07-16T08:52:29;7.25;;;4.28;;
41115;SDS011;26861;51.824;4.682;2023-07-16T08:54:55;6.53;;;4.07;;
41115;SDS011;26861;51.824;4.682;2023-07-16T08:57:21;6.57;;;4.35;;
41115;SDS011;26861;51.824;4.682;2023-07-16T08:59:48;6.63;;;3.85;;
41115;SDS011;26861;51.824;4.682;2023-07-16T09:02:17;7.70;;;4.20;;
41115;SDS011;26861;51.824;4.682;2023-07-16T09:04:47;5.95;;;3.80;;
41115;SDS011;26861;51.824;4.682;2023-07-16T09:07:15;10.02;;;4.50;;
41115;SDS011;26861;51.824;4.682;2023-07-16T09:09:41;5.50;;;4.35;;
41115;SDS011;26861;51.824;4.682;2023-07-16T09:12:11;6.18;;;4.20;;
41115;SDS011;26861;51.824;4.682;2023-07-16T09:14:37;8.50;;;4.47;;
41115;SDS011;26861;51.824;4.682;2023-07-16T09:17:05;9.40;;;4.35;;
41115;SDS011;26861;51.824;4.682;2023-07-16T09:19:32;5.63;;;4.15;;
41115;SDS011;26861;51.824;4.682;2023-07-16T09:21:58;6.50;;;4.00;;
41115;SDS011;26861;51.824;4.682;2023-07-16T09:24:25;9.82;;;4.57;;
41115;SDS011;26861;51.824;4.682;2023-07-16T09:26:51;11.38;;;4.47;;
41115;SDS011;26861;51.824;4.682;2023-07-16T09:29:18;6.65;;;4.25;;
41115;SDS011;26861;51.824;4.682;2023-07-16T09:31:55;13.88;;;5.20;;
41115;SDS011;26861;51.824;4.682;2023-07-16T09:34:23;8.07;;;4.38;;
41115;SDS011;26861;51.824;4.682;2023-07-16T09:36:51;6.57;;;3.92;;
41115;SDS011;26861;51.824;4.682;2023-07-16T09:39:17;7.97;;;4.03;;
41115;SDS011;26861;51.824;4.682;2023-07-16T09:41:45;5.97;;;3.88;;
41115;SDS011;26861;51.824;4.682;2023-07-16T09:44:13;6.60;;;4.78;;
41115;SDS011;26861;51.824;4.682;2023-07-16T09:46:40;6.10;;;3.72;;
41115;SDS011;26861;51.824;4.682;2023-07-16T09:49:06;8.43;;;4.25;;
41115;SDS011;26861;51.824;4.682;2023-07-16T09:51:34;6.88;;;3.90;;
41115;SDS011;26861;51.824;4.682;2023-07-16T09:54:02;8.10;;;4.32;;
41115;SDS011;26861;51.824;4.682;2023-07-16T09:56:39;8.38;;;3.88;;
41115;SDS011;26861;51.824;4.682;2023-07-16T09:59:12;5.95;;;3.83;;
41115;SDS011;26861;51.824;4.682;2023-07-16T10:01:43;7.82;;;4.30;;
41115;SDS011;26861;51.824;4.682;2023-07-16T10:04:18;5.88;;;3.67;;
41115;SDS011;26861;51.824;4.682;2023-07-16T10:09:52;6.70;;;3.08;;
41115;SDS011;26861;51.824;4.682;2023-07-16T10:12:21;8.30;;;3.00;;
41115;SDS011;26861;51.824;4.682;2023-07-16T10:14:51;3.08;;;2.47;;
41115;SDS011;26861;51.824;4.682;2023-07-16T10:17:20;5.50;;;3.45;;
41115;SDS011;26861;51.824;4.682;2023-07-16T10:19:47;5.68;;;3.28;;
41115;SDS011;26861;51.824;4.682;2023-07-16T10:25:10;7.45;;;3.58;;
41115;SDS011;26861;51.824;4.682;2023-07-16T10:27:48;6.05;;;3.63;;
41115;SDS011;26861;51.824;4.682;2023-07-16T10:30:14;4.93;;;3.10;;
41115;SDS011;26861;51.824;4.682;2023-07-16T10:32:41;6.55;;;3.05;;
41115;SDS011;26861;51.824;4.682;2023-07-16T10:35:08;6.32;;;3.20;;
41115;SDS011;26861;51.824;4.682;2023-07-16T10:37:35;4.53;;;2.70;;
41115;SDS011;26861;51.824;4.682;2023-07-16T10:40:02;6.03;;;3.42;;
41115;SDS011;26861;51.824;4.682;2023-07-16T10:42:29;8.77;;;3.10;;
41115;SDS011;26861;51.824;4.682;2023-07-16T10:44:58;6.00;;;3.25;;
41115;SDS011;26861;51.824;4.682;2023-07-16T10:50:03;9.18;;;3.25;;
41115;SDS011;26861;51.824;4.682;2023-07-16T10:52:30;7.18;;;3.38;;
41115;SDS011;26861;51.824;4.682;2023-07-16T10:54:57;5.95;;;3.70;;
41115;SDS011;26861;51.824;4.682;2023-07-16T10:57:24;6.95;;;3.10;;
41115;SDS011;26861;51.824;4.682;2023-07-16T10:59:51;5.30;;;3.42;;
41115;SDS011;26861;51.824;4.682;2023-07-16T11:02:18;4.88;;;2.42;;
41115;SDS011;26861;51.824;4.682;2023-07-16T11:04:46;6.50;;;3.15;;
41115;SDS011;26861;51.824;4.682;2023-07-16T11:07:13;3.63;;;2.67;;
41115;SDS011;26861;51.824;4.682;2023-07-16T11:09:52;4.28;;;2.78;;
41115;SDS011;26861;51.824;4.682;2023-07-16T11:12:20;6.93;;;2.85;;
41115;SDS011;26861;51.824;4.682;2023-07-16T11:14:48;5.90;;;2.70;;
41115;SDS011;26861;51.824;4.682;2023-07-16T11:17:16;5.03;;;3.08;;
41115;SDS011;26861;51.824;4.682;2023-07-16T11:19:45;4.47;;;2.25;;
41115;SDS011;26861;51.824;4.682;2023-07-16T11:22:12;4.43;;;2.33;;
41115;SDS011;26861;51.824;4.682;2023-07-16T11:24:40;3.08;;;1.77;;
41115;SDS011;26861;51.824;4.682;2023-07-16T11:27:14;3.88;;;2.22;;
41115;SDS011;26861;51.824;4.682;2023-07-16T11:29:50;4.38;;;2.33;;
41115;SDS011;26861;51.824;4.682;2023-07-16T11:32:33;3.72;;;1.75;;
41115;SDS011;26861;51.824;4.682;2023-07-16T11:35:04;3.17;;;1.67;;
41115;SDS011;26861;51.824;4.682;2023-07-16T11:37:33;3.50;;;1.97;;
41115;SDS011;26861;51.824;4.682;2023-07-16T11:40:01;3.15;;;1.80;;
41115;SDS011;26861;51.824;4.682;2023-07-16T11:42:32;2.45;;;1.65;;
41115;SDS011;26861;51.824;4.682;2023-07-16T11:45:00;3.13;;;1.80;;
41115;SDS011;26861;51.824;4.682;2023-07-16T11:47:27;5.43;;;1.90;;
41115;SDS011;26861;51.824;4.682;2023-07-16T11:49:54;3.60;;;1.77;;
41115;SDS011;26861;51.824;4.682;2023-07-16T11:52:21;2.97;;;1.70;;
41115;SDS011;26861;51.824;4.682;2023-07-16T11:55:04;4.70;;;2.00;;
41115;SDS011;26861;51.824;4.682;2023-07-16T11:57:31;3.90;;;1.33;;
41115;SDS011;26861;51.824;4.682;2023-07-16T11:59:58;3.58;;;1.33;;
41115;SDS011;26861;51.824;4.682;2023-07-16T12:02:25;2.45;;;1.50;;
41115;SDS011;26861;51.824;4.682;2023-07-16T12:04:52;4.90;;;1.98;;
41115;SDS011;26861;51.824;4.682;2023-07-16T12:10:17;5.53;;;1.67;;
41115;SDS011;26861;51.824;4.682;2023-07-16T12:12:43;4.88;;;1.60;;
41115;SDS011;26861;51.824;4.682;2023-07-16T12:15:09;3.92;;;1.70;;
41115;SDS011;26861;51.824;4.682;2023-07-16T12:17:35;8.13;;;1.55;;
41115;SDS011;26861;51.824;4.682;2023-07-16T12:20:01;4.28;;;1.75;;
41115;SDS011;26861;51.824;4.682;2023-07-16T12:22:29;5.85;;;1.90;;
41115;SDS011;26861;51.824;4.682;2023-07-16T12:24:55;2.88;;;1.27;;
41115;SDS011;26861;51.824;4.682;2023-07-16T12:27:21;7.32;;;1.90;;
41115;SDS011;26861;51.824;4.682;2023-07-16T12:29:47;3.90;;;1.40;;
41115;SDS011;26861;51.824;4.682;2023-07-16T12:32:14;7.30;;;1.45;;
41115;SDS011;26861;51.824;4.682;2023-07-16T12:34:40;4.35;;;1.45;;
41115;SDS011;26861;51.824;4.682;2023-07-16T12:37:06;4.07;;;1.45;;
41115;SDS011;26861;51.824;4.682;2023-07-16T12:39:33;3.92;;;1.38;;
41115;SDS011;26861;51.824;4.682;2023-07-16T12:41:59;2.95;;;1.30;;
41115;SDS011;26861;51.824;4.682;2023-07-16T12:44:25;4.07;;;1.55;;
41115;SDS011;26861;51.824;4.682;2023-07-16T12:46:51;3.92;;;1.30;;
41115;SDS011;26861;51.824;4.682;2023-07-16T12:49:17;4.43;;;1.25;;
41115;SDS011;26861;51.824;4.682;2023-07-16T12:51:44;3.35;;;1.75;;
41115;SDS011;26861;51.824;4.682;2023-07-16T12:54:10;4.72;;;1.40;;
41115;SDS011;26861;51.824;4.682;2023-07-16T12:56:36;4.65;;;1.40;;
41115;SDS011;26861;51.824;4.682;2023-07-16T12:59:03;3.88;;;1.20;;
41115;SDS011;26861;51.824;4.682;2023-07-16T13:01:29;3.78;;;1.30;;
41115;SDS011;26861;51.824;4.682;2023-07-16T13:03:56;4.85;;;1.45;;
41115;SDS011;26861;51.824;4.682;2023-07-16T13:06:22;5.10;;;1.35;;
41115;SDS011;26861;51.824;4.682;2023-07-16T13:08:48;3.80;;;1.30;;
41115;SDS011;26861;51.824;4.682;2023-07-16T13:11:14;6.93;;;1.20;;
41115;SDS011;26861;51.824;4.682;2023-07-16T13:13:40;3.97;;;1.20;;
41115;SDS011;26861;51.824;4.682;2023-07-16T13:16:08;2.78;;;1.13;;
41115;SDS011;26861;51.824;4.682;2023-07-16T13:18:34;3.80;;;1.15;;
41115;SDS011;26861;51.824;4.682;2023-07-16T13:21:00;5.90;;;1.38;;
41115;SDS011;26861;51.824;4.682;2023-07-16T13:23:25;3.92;;;1.15;;
41115;SDS011;26861;51.824;4.682;2023-07-16T13:25:51;2.63;;;1.05;;
41115;SDS011;26861;51.824;4.682;2023-07-16T13:28:17;2.92;;;1.10;;
41115;SDS011;26861;51.824;4.682;2023-07-16T13:30:43;3.58;;;0.90;;
41115;SDS011;26861;51.824;4.682;2023-07-16T13:33:09;5.30;;;1.10;;
41115;SDS011;26861;51.824;4.682;2023-07-16T13:35:35;2.95;;;0.93;;
41115;SDS011;26861;51.824;4.682;2023-07-16T13:38:01;2.78;;;0.90;;
41115;SDS011;26861;51.824;4.682;2023-07-16T13:40:27;2.85;;;1.10;;
41115;SDS011;26861;51.824;4.682;2023-07-16T13:42:53;4.30;;;1.33;;
41115;SDS011;26861;51.824;4.682;2023-07-16T13:45:19;3.42;;;1.00;;
41115;SDS011;26861;51.824;4.682;2023-07-16T13:47:45;1.80;;;0.93;;
41115;SDS011;26861;51.824;4.682;2023-07-16T13:50:11;5.18;;;0.95;;
41115;SDS011;26861;51.824;4.682;2023-07-16T13:52:37;3.20;;;1.08;;
41115;SDS011;26861;51.824;4.682;2023-07-16T13:55:04;4.30;;;1.35;;
41115;SDS011;26861;51.824;4.682;2023-07-16T13:57:31;2.83;;;1.20;;
41115;SDS011;26861;51.824;4.682;2023-07-16T13:59:57;4.80;;;1.63;;
41115;SDS011;26861;51.824;4.682;2023-07-16T14:02:24;2.95;;;1.60;;
41115;SDS011;26861;51.824;4.682;2023-07-16T14:04:50;3.70;;;2.10;;
41115;SDS011;26861;51.824;4.682;2023-07-16T14:07:17;4.32;;;2.70;;
41115;SDS011;26861;51.824;4.682;2023-07-16T14:09:43;3.72;;;2.80;;
41115;SDS011;26861;51.824;4.682;2023-07-16T14:12:10;3.78;;;2.95;;
41115;SDS011;26861;51.824;4.682;2023-07-16T14:14:36;6.07;;;3.25;;
41115;SDS011;26861;51.824;4.682;2023-07-16T14:17:03;3.92;;;3.45;;
41115;SDS011;26861;51.824;4.682;2023-07-16T14:19:29;5.50;;;5.00;;
41115;SDS011;26861;51.824;4.682;2023-07-16T14:21:56;5.10;;;4.60;;
41115;SDS011;26861;51.824;4.682;2023-07-16T14:24:22;6.82;;;4.20;;
41115;SDS011;26861;51.824;4.682;2023-07-16T14:26:49;4.13;;;3.00;;
41115;SDS011;26861;51.824;4.682;2023-07-16T14:29:15;5.05;;;3.40;;
41115;SDS011;26861;51.824;4.682;2023-07-16T14:31:42;4.25;;;2.92;;
41115;SDS011;26861;51.824;4.682;2023-07-16T14:34:08;3.42;;;2.55;;
41115;SDS011;26861;51.824;4.682;2023-07-16T14:36:34;3.50;;;2.13;;
41115;SDS011;26861;51.824;4.682;2023-07-16T14:39:01;2.92;;;1.70;;
41115;SDS011;26861;51.824;4.682;2023-07-16T14:41:28;3.47;;;2.10;;
41115;SDS011;26861;51.824;4.682;2023-07-16T14:43:54;2.85;;;1.90;;
41115;SDS011;26861;51.824;4.682;2023-07-16T14:46:21;3.40;;;1.80;;
41115;SDS011;26861;51.824;4.682;2023-07-16T14:48:47;2.75;;;1.48;;
41115;SDS011;26861;51.824;4.682;2023-07-16T14:51:13;4.70;;;1.60;;
41115;SDS011;26861;51.824;4.682;2023-07-16T14:53:39;3.00;;;1.27;;
41115;SDS011;26861;51.824;4.682;2023-07-16T14:56:05;3.22;;;1.67;;
41115;SDS011;26861;51.824;4.682;2023-07-16T14:58:32;3.90;;;1.38;;
41115;SDS011;26861;51.824;4.682;2023-07-16T15:03:30;3.70;;;1.15;;
41115;SDS011;26861;51.824;4.682;2023-07-16T15:05:59;3.67;;;1.13;;
41115;SDS011;26861;51.824;4.682;2023-07-16T15:08:24;3.83;;;1.27;;
41115;SDS011;26861;51.824;4.682;2023-07-16T15:11:10;2.03;;;1.15;;